Weather at Oslo, Fornebu Airport [CLOSED]

Public forecast

Using degrees Celsius for public forecast. Weather courtesy of forecast.io.

Closest aviation weather report (METAR) to Oslo, Fornebu Airport

Closest report is Oslo Airport, Gardermoen, 23.0 nm (42.6 km) NE.

2024/05/21 07:50 (retrieved 37 minutes ago)

ENGM 210750Z 15005KT 110V190 CAVOK 15/01 Q1023 NOSIG

Closest aviation forecast (TAF) to Oslo, Fornebu Airport

Closest forecast is Oslo Airport, Gardermoen, 23.0 nm (42.6 km) NE.

2024/05/21 06:36 (retrieved 2 hours ago)

TAF ENGM 210500Z 2106/2206 VRB03KT CAVOK BECMG 2107/2109 15010KT BECMG 2122/2124 VRB05KT